Nearby METAR Reports

 

KTTN - Trenton, New Jersey, USA
Distance from station: W 8mi, 12km
Updated: Fri, 19-Apr-2024 4:53pm EDT
Overcast
Overcast
 Wind from SE
Wind: SE 7 mph, 11 km/h
Temperature: 55°F, 13°C
Dew Point: 46°F, 8°C
Humidity: 72%
Barometer: 30.04 inHg, 1017.3 hPa
Clouds: Overcast
Visibility: 10 miles, 16 km
Cloud details: Overcast 2800 ft
2024/04/19 20:53 KTTN 192053Z 14006KT 10SM OVC028 13/08 A3004 RMK AO2 SLP166 T01330078 58017
KWRI - Wrightst/Mcguire, New Jersey, USA
Distance from station: SSE 18mi, 29km
Updated: Fri, 19-Apr-2024 4:55pm EDT
Overcast
Overcast
 Wind from ESE
Wind: ESE 8 mph, 13 km/h
Temperature: 57°F, 14°C
Dew Point: 46°F, 8°C
Humidity: 67%
Barometer: 30.05 inHg, 1017.6 hPa
Clouds: Overcast
Visibility: 10 miles, 16 km
Cloud details: Overcast 2800 ft
2024/04/19 20:55 KWRI 192055Z 11007KT 10SM OVC028 14/08 A3005 RMK AO2A SLP176 T01420077 58015
KPNE - Philadelphia/Ne, Pennsylvania, USA
Distance from station: SW 22mi, 35km
Updated: Fri, 19-Apr-2024 4:54pm EDT
Overcast
Overcast
 Wind from SE
Wind: SE 5 mph, 7 km/h
Temperature: 57°F, 14°C
Dew Point: 46°F, 8°C
Humidity: 67%
Barometer: 30.06 inHg, 1017.9 hPa
Clouds: Overcast
Visibility: 10 miles, 16 km
Cloud details: Overcast 2500 ft
2024/04/19 20:54 KPNE 192054Z 13004KT 10SM OVC025 14/08 A3006 RMK AO2 SLP178 T01440078 58018
 
KDYL - Doylestown, Pennsylvania, USA
Distance from station: W 24mi, 38km
Updated: Fri, 19-Apr-2024 4:54pm EDT
Overcast
Overcast
 Wind from SSE
Wind: SSE 6 mph, 9 km/h
Temperature: 55°F, 13°C
Dew Point: 46°F, 8°C
Humidity: 72%
Barometer: 30.04 inHg, 1017.3 hPa
Clouds: Overcast
Visibility: 10 miles, 16 km
Cloud details: Overcast 2200 ft
2024/04/19 20:54 KDYL 192054Z AUTO 15005KT 10SM OVC022 13/08 A3004 RMK AO2 SLP172 T01280083 58021
KSMQ - Somerville, New Jersey, USA
Distance from station: 0 24mi, 39km
Updated: Fri, 19-Apr-2024 4:53pm EDT
Overcast
Overcast
 Wind from SE
Wind: SE 7 mph, 11 km/h
Temperature: 55°F, 13°C
Dew Point: 46°F, 8°C
Humidity: 72%
Barometer: 30.03 inHg, 1016.9 hPa
Clouds: Overcast
Visibility: 10 miles, 16 km
Cloud details: Overcast 3100 ft
2024/04/19 20:53 KSMQ 192053Z AUTO 13006KT 10SM OVC031 13/08 A3003 RMK AO2 SLP171 T01330078 58021
KVAY - Mount Holly, New Jersey, USA
Distance from station: SSW 24mi, 39km
Updated: Fri, 19-Apr-2024 4:54pm EDT
Overcast
Overcast
 Wind from SSE
Wind: SSE 5 mph, 7 km/h
Temperature: 57°F, 14°C
Dew Point: 46°F, 8°C
Humidity: 67%
Barometer: 30.05 inHg, 1017.6 hPa
Clouds: Overcast
Visibility: 10 miles, 16 km
Cloud details: Overcast 2600 ft
2024/04/19 20:54 KVAY 192054Z AUTO 15004KT 10SM OVC026 14/08 A3005 RMK AO2 SLP175 T01440083 58014
 
KNEL - Lakehurst Nas, New Jersey, USA
Distance from station: SE 25mi, 40km
Updated: Fri, 19-Apr-2024 5:00pm EDT
Clear
Clear
 Wind from SE
Wind: SE 9 mph, 15 km/h
Temperature: 55°F, 13°C
Dew Point: 46°F, 8°C
Humidity: 72%
Barometer: 30.06 inHg, 1017.9 hPa
Clouds: Clear
2024/04/19 21:00 KNEL 192100Z AUTO 13008KT CLR 13/08 A3006 RMK AO2 SLP177 T01280078 58001 $
KBLM - Belmar/Farmdale, New Jersey, USA
Distance from station: ESE 30mi, 48km
Updated: Fri, 19-Apr-2024 4:56pm EDT
Overcast
Overcast
 Wind from ESE
Wind: ESE 10 mph, 17 km/h
Temperature: 50°F, 10°C
Wind Chill: 46°F, 8°C
Dew Point: 45°F, 7°C
Humidity: 82%
Barometer: 30.09 inHg, 1019 hPa
Clouds: Overcast
Visibility: 10 miles, 16 km
Cloud details: Overcast 1100 ft
2024/04/19 20:56 KBLM 192056Z AUTO 11009KT 10SM OVC011 10/07 A3009 RMK AO2 SLP189 T01000072 58013
KMJX - Toms River, New Jersey, USA
Distance from station: SE 30mi, 49km
Updated: Fri, 19-Apr-2024 4:56pm EDT
Partly cloudy
Partly cloudy
 Wind from ESE
Wind: ESE 8 mph, 13 km/h
Temperature: 54°F, 12°C
Dew Point: 46°F, 8°C
Humidity: 77%
Barometer: 30.08 inHg, 1018.6 hPa
Clouds: Partly cloudy
Visibility: 10 miles, 16 km
Cloud details: Partly cloudy 2400 ft
2024/04/19 20:56 KMJX 192056Z AUTO 11007KT 090V150 10SM SCT024 12/08 A3008 RMK AO2 SLP188 T01220078 58013
 
KLOM - Philly Wings F, Pennsylvania, USA
Distance from station: WSW 33mi, 52km
Updated: Fri, 19-Apr-2024 5:15pm EDT
Light rain, Overcast
Light rain, Overcast
 Wind from SE
Wind: SE 7 mph, 11 km/h
Temperature: 55°F, 13°C
Dew Point: 48°F, 9°C
Humidity: 77%
Barometer: 30.04 inHg, 1017.3 hPa
Summary: Light rain
Clouds: Overcast
Visibility: 10 miles, 16 km
Cloud details: Overcast 2300 ft
2024/04/19 21:15 KLOM 192115Z AUTO 13006KT 10SM -RA OVC023 13/09 A3004 RMK AO2 T01260090
KCKZ - Perkasie, Pennsylvania, USA
Distance from station: WNW 33mi, 53km
Updated: Fri, 19-Apr-2024 5:15pm EDT
Overcast
Overcast
 Wind from varies
Wind: varies 5 mph, 7 km/h, Gust: 12 mph, 19 km/h
Temperature: 54°F, 12°C
Dew Point: 48°F, 9°C
Humidity: 82%
Barometer: 30.04 inHg, 1017.3 hPa
Clouds: Overcast
Visibility: 10 miles, 16 km
Cloud details: Mostly cloudy 2100 ft
Overcast 4100 ft
2024/04/19 21:15 KCKZ 192115Z AUTO VRB04G10KT 10SM BKN021 OVC041 12/09 A3004 RMK AO2
KLDJ - Linden, New Jersey, USA
Distance from station: NE 33mi, 53km
Updated: Fri, 19-Apr-2024 5:15pm EDT
Mostly cloudy
Mostly cloudy
 Wind from SSE
Wind: SSE 7 mph, 11 km/h
Temperature: 52°F, 11°C
Dew Point: 43°F, 6°C
Humidity: 72%
Barometer: 30.08 inHg, 1018.6 hPa
Clouds: Mostly cloudy
Visibility: 10 miles, 16 km
Cloud details: Partly cloudy 3400 ft
Mostly cloudy 5000 ft
2024/04/19 21:15 KLDJ 192115Z AUTO 15006KT 10SM SCT034 BKN050 11/06 A3008 RMK AO2 T01060056
 
KMMU - Morristown Muni, New Jersey, USA
Distance from station: NNE 38mi, 62km
Updated: Fri, 19-Apr-2024 4:45pm EDT
Overcast
Overcast
 Wind from SE
Wind: SE 9 mph, 15 km/h
Temperature: 54°F, 12°C
Dew Point: 46°F, 8°C
Humidity: 77%
Barometer: 30.07 inHg, 1018.3 hPa
Clouds: Overcast
Visibility: 10 miles, 16 km
Cloud details: Mostly cloudy 3300 ft
Overcast 5000 ft
2024/04/19 20:45 KMMU 192045Z 13008KT 10SM BKN033 OVC050 12/08 A3007
KEWR - Newark, New Jersey, USA
Distance from station: NE 39mi, 63km
Updated: Fri, 19-Apr-2024 4:51pm EDT
Overcast
Overcast
 Wind from ESE
Wind: ESE 9 mph, 15 km/h
Temperature: 54°F, 12°C
Dew Point: 43°F, 6°C
Humidity: 67%
Barometer: 30.08 inHg, 1018.6 hPa
Clouds: Overcast
Visibility: 10 miles, 16 km
Cloud details: Few Clouds 2600 ft
Mostly cloudy 3500 ft
Overcast 25000 ft
2024/04/19 20:51 KEWR 192051Z 12008KT 10SM FEW026 BKN035 OVC250 12/06 A3008 RMK AO2 SLP183 T01170061 58014
KUKT - Quakertown Arp, Pennsylvania, USA
Distance from station: WNW 39mi, 63km
Updated: Fri, 19-Apr-2024 5:15pm EDT
Light drizzle, Mostly cloudy
Light drizzle, Mostly cloudy
 Wind from S
Wind: S 7 mph, 11 km/h
Temperature: 54°F, 12°C
Dew Point: 48°F, 9°C
Humidity: 82%
Barometer: 30.03 inHg, 1016.9 hPa
Summary: Light Drizzle
Clouds: Mostly cloudy
Visibility: 10 miles, 16 km
Cloud details: Mostly cloudy 2300 ft
Mostly cloudy 4100 ft
2024/04/19 21:15 KUKT 192115Z AUTO 19006KT 10SM -DZ BKN023 BKN041 12/09 A3003 RMK AO2
 
KPHL - Philadelphia, Pennsylvania, USA
Distance from station: SW 40mi, 65km
Updated: Fri, 19-Apr-2024 4:54pm EDT
Overcast
Overcast
 Wind from S
Wind: S 7 mph, 11 km/h
Temperature: 57°F, 14°C
Dew Point: 46°F, 8°C
Humidity: 67%
Barometer: 30.05 inHg, 1017.6 hPa
Clouds: Overcast
Visibility: 10 miles, 16 km
Cloud details: Mostly cloudy 2500 ft
Overcast 5000 ft
2024/04/19 20:54 KPHL 192054Z 17006KT 10SM BKN025 OVC050 14/08 A3005 RMK AO2 SLP176 T01390083 58020
KJRB - Manhattan/Dwntwn, New York, USA
Distance from station: NE 46mi, 74km
Updated: Fri, 19-Apr-2024 4:56pm EDT
Overcast
Overcast
 Wind from ESE
Wind: ESE 8 mph, 13 km/h
Temperature: 52°F, 11°C
Dew Point: 43°F, 6°C
Humidity: 72%
Barometer: 30.10 inHg, 1019.3 hPa
Clouds: Overcast
Visibility: 10 miles, 16 km
Cloud details: Mostly cloudy 1400 ft
Overcast 3500 ft
2024/04/19 20:56 KJRB 192056Z AUTO 12007KT 10SM BKN014 OVC035 11/06 A3010 RMK AO2 SLP191 6//// T01060056 58015 PNO $
KPTW - Pottstown, Pennsylvania, USA
Distance from station: W 46mi, 74km
Updated: Fri, 19-Apr-2024 4:54pm EDT
Light rain, Overcast
Light rain, Overcast
 Wind from varies
Wind: varies 5 mph, 7 km/h
Temperature: 54°F, 12°C
Dew Point: 46°F, 8°C
Humidity: 77%
Barometer: 30.05 inHg, 1017.6 hPa
Summary: Light rain
Clouds: Overcast
Visibility: 10 miles, 16 km
Cloud details: Few Clouds 2500 ft
Mostly cloudy 7500 ft
Overcast 10000 ft
2024/04/19 20:54 KPTW 192054Z AUTO VRB04KT 10SM -RA FEW025 BKN075 OVC100 12/08 A3005 RMK AO2 RAB10 SLP173 P0001 60001 T01220083 56027
 
KCDW - Caldwell, New Jersey, USA
Distance from station: NNE 47mi, 76km
Updated: Fri, 19-Apr-2024 4:53pm EDT
Overcast
Overcast
 Wind from SE
Wind: SE 9 mph, 15 km/h
Temperature: 54°F, 12°C
Dew Point: 41°F, 5°C
Humidity: 63%
Barometer: 30.07 inHg, 1018.3 hPa
Clouds: Overcast
Visibility: 10 miles, 16 km
Cloud details: Overcast 5000 ft
2024/04/19 20:53 KCDW 192053Z 13008KT 10SM OVC050 12/05 A3007 RMK AO2 SLP186 T01220050 58013
KXLL - Allentown Queen, Pennsylvania, USA
Distance from station: WNW 47mi, 76km
Updated: Fri, 19-Apr-2024 5:15pm EDT
Light rain, Overcast
Light rain, Overcast
 Wind from calm
Wind: Calm
Temperature: 52°F, 11°C
Dew Point: 46°F, 8°C
Humidity: 82%
Barometer: 30.05 inHg, 1017.6 hPa
Summary: Light rain
Clouds: Overcast
Visibility: 10 miles, 16 km
Cloud details: Overcast 2300 ft
2024/04/19 21:15 KXLL 192115Z AUTO 00000KT 10SM -RA OVC023 11/08 A3005 RMK AO2